sensor_id;sensor_type;location;lat;lon;timestamp;temperature;humidity
17080;DHT22;8655;57.106;-2.088;2023-02-01T00:00:55;17.80;43.10
17080;DHT22;8655;57.106;-2.088;2023-02-01T00:03:21;17.80;43.20
17080;DHT22;8655;57.106;-2.088;2023-02-01T00:05:57;17.80;43.10
17080;DHT22;8655;57.106;-2.088;2023-02-01T00:08:23;17.70;43.10
17080;DHT22;8655;57.106;-2.088;2023-02-01T00:10:48;17.80;43.10
17080;DHT22;8655;57.106;-2.088;2023-02-01T00:13:14;17.70;43.10
17080;DHT22;8655;57.106;-2.088;2023-02-01T00:15:40;17.70;43.10
17080;DHT22;8655;57.106;-2.088;2023-02-01T00:18:05;17.70;43.10
17080;DHT22;8655;57.106;-2.088;2023-02-01T00:20:31;17.70;43.10
17080;DHT22;8655;57.106;-2.088;2023-02-01T00:22:56;17.70;43.10
17080;DHT22;8655;57.106;-2.088;2023-02-01T00:25:22;17.70;43.10
17080;DHT22;8655;57.106;-2.088;2023-02-01T00:27:50;17.70;43.10
17080;DHT22;8655;57.106;-2.088;2023-02-01T00:30:17;17.60;42.90
17080;DHT22;8655;57.106;-2.088;2023-02-01T00:32:43;17.60;42.90
17080;DHT22;8655;57.106;-2.088;2023-02-01T00:35:09;17.60;42.90
17080;DHT22;8655;57.106;-2.088;2023-02-01T00:37:35;17.60;42.90
17080;DHT22;8655;57.106;-2.088;2023-02-01T00:40:00;17.60;42.90
17080;DHT22;8655;57.106;-2.088;2023-02-01T00:42:26;17.60;42.90
17080;DHT22;8655;57.106;-2.088;2023-02-01T00:44:51;17.60;42.90
17080;DHT22;8655;57.106;-2.088;2023-02-01T00:47:17;17.50;42.90
17080;DHT22;8655;57.106;-2.088;2023-02-01T00:49:43;17.50;42.80
17080;DHT22;8655;57.106;-2.088;2023-02-01T00:52:08;17.60;42.90
17080;DHT22;8655;57.106;-2.088;2023-02-01T00:54:34;17.50;42.80
17080;DHT22;8655;57.106;-2.088;2023-02-01T00:57:02;17.50;42.90
17080;DHT22;8655;57.106;-2.088;2023-02-01T00:59:27;17.50;42.80
17080;DHT22;8655;57.106;-2.088;2023-02-01T01:01:53;17.50;42.80
17080;DHT22;8655;57.106;-2.088;2023-02-01T01:04:19;17.50;42.80
17080;DHT22;8655;57.106;-2.088;2023-02-01T01:06:44;17.50;42.80
17080;DHT22;8655;57.106;-2.088;2023-02-01T01:09:10;17.50;42.80
17080;DHT22;8655;57.106;-2.088;2023-02-01T01:11:37;17.40;42.70
17080;DHT22;8655;57.106;-2.088;2023-02-01T01:14:04;17.40;42.80
17080;DHT22;8655;57.106;-2.088;2023-02-01T01:16:31;17.50;42.80
17080;DHT22;8655;57.106;-2.088;2023-02-01T01:18:57;17.40;42.70
17080;DHT22;8655;57.106;-2.088;2023-02-01T01:21:23;17.40;42.70
17080;DHT22;8655;57.106;-2.088;2023-02-01T01:23:49;17.40;42.70
17080;DHT22;8655;57.106;-2.088;2023-02-01T01:26:25;17.40;42.70
17080;DHT22;8655;57.106;-2.088;2023-02-01T01:28:52;17.40;42.70
17080;DHT22;8655;57.106;-2.088;2023-02-01T01:31:19;17.40;42.70
17080;DHT22;8655;57.106;-2.088;2023-02-01T01:33:48;17.40;42.70
17080;DHT22;8655;57.106;-2.088;2023-02-01T01:36:14;17.40;42.70
17080;DHT22;8655;57.106;-2.088;2023-02-01T01:38:40;17.30;42.70
17080;DHT22;8655;57.106;-2.088;2023-02-01T01:41:08;17.40;42.70
17080;DHT22;8655;57.106;-2.088;2023-02-01T01:44:03;17.30;42.70
17080;DHT22;8655;57.106;-2.088;2023-02-01T01:46:35;17.30;42.70
17080;DHT22;8655;57.106;-2.088;2023-02-01T01:49:16;17.30;42.70
17080;DHT22;8655;57.106;-2.088;2023-02-01T01:54:23;17.30;42.70
17080;DHT22;8655;57.106;-2.088;2023-02-01T01:56:55;17.30;42.60
17080;DHT22;8655;57.106;-2.088;2023-02-01T01:59:24;17.30;42.70
17080;DHT22;8655;57.106;-2.088;2023-02-01T02:01:51;17.30;42.70
17080;DHT22;8655;57.106;-2.088;2023-02-01T02:04:17;17.30;42.70
17080;DHT22;8655;57.106;-2.088;2023-02-01T02:06:50;17.20;42.60
17080;DHT22;8655;57.106;-2.088;2023-02-01T02:09:17;17.20;42.50
17080;DHT22;8655;57.106;-2.088;2023-02-01T02:11:43;17.20;42.50
17080;DHT22;8655;57.106;-2.088;2023-02-01T02:14:11;17.20;42.60
17080;DHT22;8655;57.106;-2.088;2023-02-01T02:27:58;17.20;42.60
17080;DHT22;8655;57.106;-2.088;2023-02-01T02:35:58;17.10;42.50
17080;DHT22;8655;57.106;-2.088;2023-02-01T02:41:33;17.10;42.50
17080;DHT22;8655;57.106;-2.088;2023-02-01T02:47:15;17.10;42.50
17080;DHT22;8655;57.106;-2.088;2023-02-01T02:50:06;17.10;42.50
17080;DHT22;8655;57.106;-2.088;2023-02-01T02:53:16;17.10;42.50
17080;DHT22;8655;57.106;-2.088;2023-02-01T02:56:03;17.00;42.40
17080;DHT22;8655;57.106;-2.088;2023-02-01T02:58:48;17.00;42.40
17080;DHT22;8655;57.106;-2.088;2023-02-01T03:01:33;17.00;42.40
17080;DHT22;8655;57.106;-2.088;2023-02-01T03:04:17;17.00;42.40
17080;DHT22;8655;57.106;-2.088;2023-02-01T03:06:44;17.00;42.50
17080;DHT22;8655;57.106;-2.088;2023-02-01T03:09:30;17.00;42.40
17080;DHT22;8655;57.106;-2.088;2023-02-01T03:12:01;16.90;42.30
17080;DHT22;8655;57.106;-2.088;2023-02-01T03:14:50;17.00;42.40
17080;DHT22;8655;57.106;-2.088;2023-02-01T03:17:22;16.90;42.30
17080;DHT22;8655;57.106;-2.088;2023-02-01T03:19:53;17.00;42.40
17080;DHT22;8655;57.106;-2.088;2023-02-01T03:22:24;16.90;42.30
17080;DHT22;8655;57.106;-2.088;2023-02-01T03:24:54;16.90;42.90
17080;DHT22;8655;57.106;-2.088;2023-02-01T03:30:06;16.90;42.30
17080;DHT22;8655;57.106;-2.088;2023-02-01T03:32:35;16.90;42.30
17080;DHT22;8655;57.106;-2.088;2023-02-01T03:35:28;16.90;42.30
17080;DHT22;8655;57.106;-2.088;2023-02-01T03:38:24;16.90;42.30
17080;DHT22;8655;57.106;-2.088;2023-02-01T03:40:53;16.90;42.30
17080;DHT22;8655;57.106;-2.088;2023-02-01T03:43:21;16.90;42.40
17080;DHT22;8655;57.106;-2.088;2023-02-01T03:45:53;16.80;42.30
17080;DHT22;8655;57.106;-2.088;2023-02-01T03:48:21;16.90;42.30
17080;DHT22;8655;57.106;-2.088;2023-02-01T03:50:50;16.80;42.30
17080;DHT22;8655;57.106;-2.088;2023-02-01T03:53:20;16.90;42.40
17080;DHT22;8655;57.106;-2.088;2023-02-01T03:55:47;16.80;42.30
17080;DHT22;8655;57.106;-2.088;2023-02-01T03:58:19;16.80;42.30
17080;DHT22;8655;57.106;-2.088;2023-02-01T04:00:59;16.80;42.30
17080;DHT22;8655;57.106;-2.088;2023-02-01T04:03:26;16.80;42.30
17080;DHT22;8655;57.106;-2.088;2023-02-01T04:05:52;16.80;42.30
17080;DHT22;8655;57.106;-2.088;2023-02-01T04:08:22;16.80;42.30
17080;DHT22;8655;57.106;-2.088;2023-02-01T04:10:48;16.80;42.30
17080;DHT22;8655;57.106;-2.088;2023-02-01T04:13:14;16.80;42.30
17080;DHT22;8655;57.106;-2.088;2023-02-01T04:15:40;16.80;42.30
17080;DHT22;8655;57.106;-2.088;2023-02-01T04:18:05;16.70;42.20
17080;DHT22;8655;57.106;-2.088;2023-02-01T04:20:31;16.70;42.30
17080;DHT22;8655;57.106;-2.088;2023-02-01T04:22:57;16.80;42.30
17080;DHT22;8655;57.106;-2.088;2023-02-01T04:25:23;16.70;42.20
17080;DHT22;8655;57.106;-2.088;2023-02-01T04:27:49;16.70;42.20
17080;DHT22;8655;57.106;-2.088;2023-02-01T04:30:15;16.70;42.30
17080;DHT22;8655;57.106;-2.088;2023-02-01T04:32:41;16.70;42.30
17080;DHT22;8655;57.106;-2.088;2023-02-01T04:35:07;16.70;42.30
17080;DHT22;8655;57.106;-2.088;2023-02-01T04:37:33;16.70;42.30
17080;DHT22;8655;57.106;-2.088;2023-02-01T04:39:59;16.70;42.30
17080;DHT22;8655;57.106;-2.088;2023-02-01T04:42:25;16.70;42.30
17080;DHT22;8655;57.106;-2.088;2023-02-01T04:44:51;16.70;42.20
17080;DHT22;8655;57.106;-2.088;2023-02-01T04:47:16;16.70;42.30
17080;DHT22;8655;57.106;-2.088;2023-02-01T04:49:42;16.70;42.30
17080;DHT22;8655;57.106;-2.088;2023-02-01T04:52:08;16.70;42.30
17080;DHT22;8655;57.106;-2.088;2023-02-01T04:54:33;16.70;42.30
17080;DHT22;8655;57.106;-2.088;2023-02-01T04:56:59;16.60;42.20
17080;DHT22;8655;57.106;-2.088;2023-02-01T04:59:25;16.60;42.20
17080;DHT22;8655;57.106;-2.088;2023-02-01T05:01:51;16.60;42.20
17080;DHT22;8655;57.106;-2.088;2023-02-01T05:04:16;16.60;42.20
17080;DHT22;8655;57.106;-2.088;2023-02-01T05:06:44;16.60;42.20
17080;DHT22;8655;57.106;-2.088;2023-02-01T05:09:10;16.60;42.20
17080;DHT22;8655;57.106;-2.088;2023-02-01T05:11:35;16.60;42.20
17080;DHT22;8655;57.106;-2.088;2023-02-01T05:14:20;16.60;42.20
17080;DHT22;8655;57.106;-2.088;2023-02-01T05:16:46;16.60;42.20
17080;DHT22;8655;57.106;-2.088;2023-02-01T05:19:11;16.60;42.20
17080;DHT22;8655;57.106;-2.088;2023-02-01T05:21:37;16.60;42.20
17080;DHT22;8655;57.106;-2.088;2023-02-01T05:24:04;16.60;42.20
17080;DHT22;8655;57.106;-2.088;2023-02-01T05:26:42;16.60;42.20
17080;DHT22;8655;57.106;-2.088;2023-02-01T05:29:09;16.50;42.10
17080;DHT22;8655;57.106;-2.088;2023-02-01T05:31:35;16.50;42.10
17080;DHT22;8655;57.106;-2.088;2023-02-01T05:34:01;16.50;42.10
17080;DHT22;8655;57.106;-2.088;2023-02-01T05:36:27;16.50;42.10
17080;DHT22;8655;57.106;-2.088;2023-02-01T05:38:53;16.50;42.10
17080;DHT22;8655;57.106;-2.088;2023-02-01T05:41:19;16.50;42.10
17080;DHT22;8655;57.106;-2.088;2023-02-01T05:43:44;16.50;42.20
17080;DHT22;8655;57.106;-2.088;2023-02-01T05:46:10;16.50;42.10
17080;DHT22;8655;57.106;-2.088;2023-02-01T05:48:41;16.50;42.10
17080;DHT22;8655;57.106;-2.088;2023-02-01T05:51:07;16.50;42.10
17080;DHT22;8655;57.106;-2.088;2023-02-01T05:53:33;16.50;42.10
17080;DHT22;8655;57.106;-2.088;2023-02-01T05:55:59;16.50;42.10
17080;DHT22;8655;57.106;-2.088;2023-02-01T05:58:25;16.40;42.10
17080;DHT22;8655;57.106;-2.088;2023-02-01T06:00:50;16.40;42.10
17080;DHT22;8655;57.106;-2.088;2023-02-01T06:03:16;16.40;42.00
17080;DHT22;8655;57.106;-2.088;2023-02-01T06:05:44;16.40;42.10
17080;DHT22;8655;57.106;-2.088;2023-02-01T06:08:10;16.40;42.10
17080;DHT22;8655;57.106;-2.088;2023-02-01T06:10:36;16.40;42.10
17080;DHT22;8655;57.106;-2.088;2023-02-01T06:13:01;16.40;42.10
17080;DHT22;8655;57.106;-2.088;2023-02-01T06:15:28;16.40;42.10
17080;DHT22;8655;57.106;-2.088;2023-02-01T06:17:55;16.40;42.10
17080;DHT22;8655;57.106;-2.088;2023-02-01T06:20:21;16.40;42.10
17080;DHT22;8655;57.106;-2.088;2023-02-01T06:22:47;16.40;42.10
17080;DHT22;8655;57.106;-2.088;2023-02-01T06:25:13;16.40;42.10
17080;DHT22;8655;57.106;-2.088;2023-02-01T06:27:39;16.40;42.20
17080;DHT22;8655;57.106;-2.088;2023-02-01T06:30:05;16.40;42.30
17080;DHT22;8655;57.106;-2.088;2023-02-01T06:32:31;16.40;42.20
17080;DHT22;8655;57.106;-2.088;2023-02-01T06:34:57;16.50;42.30
17080;DHT22;8655;57.106;-2.088;2023-02-01T06:37:23;16.50;42.20
17080;DHT22;8655;57.106;-2.088;2023-02-01T06:39:54;16.60;42.30
17080;DHT22;8655;57.106;-2.088;2023-02-01T06:42:20;16.60;42.30
17080;DHT22;8655;57.106;-2.088;2023-02-01T06:44:46;16.60;42.20
17080;DHT22;8655;57.106;-2.088;2023-02-01T06:47:11;16.70;42.40
17080;DHT22;8655;57.106;-2.088;2023-02-01T06:49:37;16.70;42.30
17080;DHT22;8655;57.106;-2.088;2023-02-01T06:52:03;16.80;42.30
17080;DHT22;8655;57.106;-2.088;2023-02-01T06:54:29;16.80;42.30
17080;DHT22;8655;57.106;-2.088;2023-02-01T06:56:57;16.90;42.40
17080;DHT22;8655;57.106;-2.088;2023-02-01T06:59:23;16.90;42.40
17080;DHT22;8655;57.106;-2.088;2023-02-01T07:01:49;16.90;42.30
17080;DHT22;8655;57.106;-2.088;2023-02-01T07:04:14;17.00;42.40
17080;DHT22;8655;57.106;-2.088;2023-02-01T07:06:40;17.10;42.50
17080;DHT22;8655;57.106;-2.088;2023-02-01T07:09:06;17.10;42.50
17080;DHT22;8655;57.106;-2.088;2023-02-01T07:11:32;17.20;42.50
17080;DHT22;8655;57.106;-2.088;2023-02-01T07:13:58;17.20;42.50
17080;DHT22;8655;57.106;-2.088;2023-02-01T07:16:24;17.20;42.40
17080;DHT22;8655;57.106;-2.088;2023-02-01T07:18:51;17.30;42.50
17080;DHT22;8655;57.106;-2.088;2023-02-01T07:21:17;17.30;43.10
17080;DHT22;8655;57.106;-2.088;2023-02-01T07:23:43;17.40;42.60
17080;DHT22;8655;57.106;-2.088;2023-02-01T07:26:11;17.40;42.50
17080;DHT22;8655;57.106;-2.088;2023-02-01T07:28:40;17.50;42.60
17080;DHT22;8655;57.106;-2.088;2023-02-01T07:31:08;17.60;42.70
17080;DHT22;8655;57.106;-2.088;2023-02-01T07:33:34;17.60;42.70
17080;DHT22;8655;57.106;-2.088;2023-02-01T07:36:02;17.60;42.70
17080;DHT22;8655;57.106;-2.088;2023-02-01T07:38:28;17.70;42.70
17080;DHT22;8655;57.106;-2.088;2023-02-01T07:41:02;17.70;42.70
17080;DHT22;8655;57.106;-2.088;2023-02-01T07:43:28;17.80;42.70
17080;DHT22;8655;57.106;-2.088;2023-02-01T07:45:55;17.80;42.80
17080;DHT22;8655;57.106;-2.088;2023-02-01T07:48:22;17.90;42.80
17080;DHT22;8655;57.106;-2.088;2023-02-01T07:50:48;17.90;42.80
17080;DHT22;8655;57.106;-2.088;2023-02-01T07:53:14;17.90;42.80
17080;DHT22;8655;57.106;-2.088;2023-02-01T07:55:40;18.00;42.90
17080;DHT22;8655;57.106;-2.088;2023-02-01T07:58:06;18.00;42.80
17080;DHT22;8655;57.106;-2.088;2023-02-01T08:00:32;18.10;42.90
17080;DHT22;8655;57.106;-2.088;2023-02-01T08:03:16;18.10;42.90
17080;DHT22;8655;57.106;-2.088;2023-02-01T08:05:41;18.10;42.90
17080;DHT22;8655;57.106;-2.088;2023-02-01T08:08:07;18.20;42.90
17080;DHT22;8655;57.106;-2.088;2023-02-01T08:10:33;18.20;42.90
17080;DHT22;8655;57.106;-2.088;2023-02-01T08:13:01;18.20;42.90
17080;DHT22;8655;57.106;-2.088;2023-02-01T08:15:28;18.30;43.00
17080;DHT22;8655;57.106;-2.088;2023-02-01T08:17:54;18.40;43.00
17080;DHT22;8655;57.106;-2.088;2023-02-01T08:20:21;18.30;42.90
17080;DHT22;8655;57.106;-2.088;2023-02-01T08:22:51;18.40;43.00
17080;DHT22;8655;57.106;-2.088;2023-02-01T08:25:17;18.40;42.90
17080;DHT22;8655;57.106;-2.088;2023-02-01T08:27:43;18.50;43.00
17080;DHT22;8655;57.106;-2.088;2023-02-01T08:30:10;18.50;43.00
17080;DHT22;8655;57.106;-2.088;2023-02-01T08:32:36;18.50;43.00
17080;DHT22;8655;57.106;-2.088;2023-02-01T08:35:05;18.50;43.00
17080;DHT22;8655;57.106;-2.088;2023-02-01T08:37:31;18.50;43.00
17080;DHT22;8655;57.106;-2.088;2023-02-01T08:39:57;18.50;43.00
17080;DHT22;8655;57.106;-2.088;2023-02-01T08:42:23;18.50;42.90
17080;DHT22;8655;57.106;-2.088;2023-02-01T08:45:07;18.60;43.00
17080;DHT22;8655;57.106;-2.088;2023-02-01T08:47:34;18.50;42.90
17080;DHT22;8655;57.106;-2.088;2023-02-01T08:49:59;18.50;42.90
17080;DHT22;8655;57.106;-2.088;2023-02-01T08:52:25;18.50;43.60
17080;DHT22;8655;57.106;-2.088;2023-02-01T08:54:51;18.50;42.90
17080;DHT22;8655;57.106;-2.088;2023-02-01T08:57:17;18.50;43.00
17080;DHT22;8655;57.106;-2.088;2023-02-01T08:59:43;18.50;43.00
17080;DHT22;8655;57.106;-2.088;2023-02-01T09:02:15;18.50;43.00
17080;DHT22;8655;57.106;-2.088;2023-02-01T09:04:41;18.50;42.90
17080;DHT22;8655;57.106;-2.088;2023-02-01T09:07:09;18.50;43.00
17080;DHT22;8655;57.106;-2.088;2023-02-01T09:09:35;18.40;42.90
17080;DHT22;8655;57.106;-2.088;2023-02-01T09:12:02;18.40;43.50
17080;DHT22;8655;57.106;-2.088;2023-02-01T09:14:28;18.40;43.50
17080;DHT22;8655;57.106;-2.088;2023-02-01T09:16:53;18.40;42.90
17080;DHT22;8655;57.106;-2.088;2023-02-01T09:19:19;18.40;42.90
17080;DHT22;8655;57.106;-2.088;2023-02-01T09:21:44;18.40;43.00
17080;DHT22;8655;57.106;-2.088;2023-02-01T09:24:11;18.30;42.90
17080;DHT22;8655;57.106;-2.088;2023-02-01T09:26:37;18.30;42.90
17080;DHT22;8655;57.106;-2.088;2023-02-01T09:29:03;18.30;42.90
17080;DHT22;8655;57.106;-2.088;2023-02-01T09:31:30;18.30;42.90
17080;DHT22;8655;57.106;-2.088;2023-02-01T09:33:56;18.30;42.90
17080;DHT22;8655;57.106;-2.088;2023-02-01T09:36:22;18.20;42.80
17080;DHT22;8655;57.106;-2.088;2023-02-01T09:38:49;18.20;42.90
17080;DHT22;8655;57.106;-2.088;2023-02-01T09:41:42;18.20;42.90
17080;DHT22;8655;57.106;-2.088;2023-02-01T09:46:45;18.10;42.80
17080;DHT22;8655;57.106;-2.088;2023-02-01T09:49:22;18.10;42.80
17080;DHT22;8655;57.106;-2.088;2023-02-01T09:51:51;18.10;42.80
17080;DHT22;8655;57.106;-2.088;2023-02-01T09:54:27;18.10;42.80
17080;DHT22;8655;57.106;-2.088;2023-02-01T09:59:43;18.10;42.90
17080;DHT22;8655;57.106;-2.088;2023-02-01T10:02:23;18.00;42.80
17080;DHT22;8655;57.106;-2.088;2023-02-01T10:04:49;18.00;42.80
17080;DHT22;8655;57.106;-2.088;2023-02-01T10:12:42;17.90;42.70
17080;DHT22;8655;57.106;-2.088;2023-02-01T10:24:19;17.90;42.80
17080;DHT22;8655;57.106;-2.088;2023-02-01T10:26:50;17.90;42.80
17080;DHT22;8655;57.106;-2.088;2023-02-01T10:29:20;17.80;42.70
17080;DHT22;8655;57.106;-2.088;2023-02-01T10:31:48;17.80;42.70
17080;DHT22;8655;57.106;-2.088;2023-02-01T10:34:25;17.80;42.70
17080;DHT22;8655;57.106;-2.088;2023-02-01T10:37:01;17.80;42.70
17080;DHT22;8655;57.106;-2.088;2023-02-01T10:39:32;17.80;42.70
17080;DHT22;8655;57.106;-2.088;2023-02-01T10:41:58;17.80;42.70
17080;DHT22;8655;57.106;-2.088;2023-02-01T10:44:27;17.70;42.60
17080;DHT22;8655;57.106;-2.088;2023-02-01T10:46:54;17.80;42.70
17080;DHT22;8655;57.106;-2.088;2023-02-01T10:54:47;17.70;42.60
17080;DHT22;8655;57.106;-2.088;2023-02-01T10:57:23;17.70;42.60
17080;DHT22;8655;57.106;-2.088;2023-02-01T10:59:51;17.70;42.60
17080;DHT22;8655;57.106;-2.088;2023-02-01T11:02:25;17.70;42.60
17080;DHT22;8655;57.106;-2.088;2023-02-01T11:05:05;17.70;42.60
17080;DHT22;8655;57.106;-2.088;2023-02-01T11:07:35;17.70;42.60
17080;DHT22;8655;57.106;-2.088;2023-02-01T11:10:02;17.70;42.70
17080;DHT22;8655;57.106;-2.088;2023-02-01T11:12:33;17.60;42.50
17080;DHT22;8655;57.106;-2.088;2023-02-01T11:15:23;17.60;42.50
17080;DHT22;8655;57.106;-2.088;2023-02-01T11:17:49;17.60;42.50
17080;DHT22;8655;57.106;-2.088;2023-02-01T11:22:58;17.60;42.50
17080;DHT22;8655;57.106;-2.088;2023-02-01T11:25:25;17.60;42.50
17080;DHT22;8655;57.106;-2.088;2023-02-01T11:27:53;17.60;42.60
17080;DHT22;8655;57.106;-2.088;2023-02-01T11:30:33;17.60;42.50
17080;DHT22;8655;57.106;-2.088;2023-02-01T11:33:01;17.60;42.50
17080;DHT22;8655;57.106;-2.088;2023-02-01T11:35:28;17.60;42.50
17080;DHT22;8655;57.106;-2.088;2023-02-01T11:37:57;17.60;42.50
17080;DHT22;8655;57.106;-2.088;2023-02-01T11:40:45;17.50;42.50
17080;DHT22;8655;57.106;-2.088;2023-02-01T11:43:24;17.50;42.50
17080;DHT22;8655;57.106;-2.088;2023-02-01T11:45:56;17.50;42.50
17080;DHT22;8655;57.106;-2.088;2023-02-01T11:48:24;17.50;42.50
17080;DHT22;8655;57.106;-2.088;2023-02-01T11:58:50;17.50;42.50
17080;DHT22;8655;57.106;-2.088;2023-02-01T12:16:00;17.40;42.40
17080;DHT22;8655;57.106;-2.088;2023-02-01T12:18:43;17.40;42.40
17080;DHT22;8655;57.106;-2.088;2023-02-01T12:35:13;17.30;42.30
17080;DHT22;8655;57.106;-2.088;2023-02-01T12:41:08;17.30;42.30
17080;DHT22;8655;57.106;-2.088;2023-02-01T12:44:06;17.30;42.30
17080;DHT22;8655;57.106;-2.088;2023-02-01T12:46:43;17.30;42.30
17080;DHT22;8655;57.106;-2.088;2023-02-01T12:49:27;17.30;42.30
17080;DHT22;8655;57.106;-2.088;2023-02-01T12:52:06;17.30;42.30
17080;DHT22;8655;57.106;-2.088;2023-02-01T12:54:58;17.30;42.30
17080;DHT22;8655;57.106;-2.088;2023-02-01T12:57:30;17.30;42.30
17080;DHT22;8655;57.106;-2.088;2023-02-01T12:59:59;17.30;42.30
17080;DHT22;8655;57.106;-2.088;2023-02-01T13:02:37;17.30;42.30
17080;DHT22;8655;57.106;-2.088;2023-02-01T13:05:13;17.30;42.30
17080;DHT22;8655;57.106;-2.088;2023-02-01T13:08:08;17.30;42.30
17080;DHT22;8655;57.106;-2.088;2023-02-01T13:16:09;17.30;42.30
17080;DHT22;8655;57.106;-2.088;2023-02-01T13:18:39;17.30;42.30
17080;DHT22;8655;57.106;-2.088;2023-02-01T13:23:41;17.30;42.30
17080;DHT22;8655;57.106;-2.088;2023-02-01T13:26:08;17.30;42.30
17080;DHT22;8655;57.106;-2.088;2023-02-01T13:28:58;17.30;42.30
17080;DHT22;8655;57.106;-2.088;2023-02-01T13:31:51;17.20;42.20
17080;DHT22;8655;57.106;-2.088;2023-02-01T13:34:33;17.30;42.30
17080;DHT22;8655;57.106;-2.088;2023-02-01T13:37:31;17.20;42.20
17080;DHT22;8655;57.106;-2.088;2023-02-01T13:42:47;17.20;42.20
17080;DHT22;8655;57.106;-2.088;2023-02-01T13:45:20;17.20;42.20
17080;DHT22;8655;57.106;-2.088;2023-02-01T13:47:48;17.20;42.20
17080;DHT22;8655;57.106;-2.088;2023-02-01T13:50:38;17.20;42.20
17080;DHT22;8655;57.106;-2.088;2023-02-01T13:55:45;17.20;42.20
17080;DHT22;8655;57.106;-2.088;2023-02-01T13:58:22;17.20;42.20
17080;DHT22;8655;57.106;-2.088;2023-02-01T14:09:17;17.20;42.10
17080;DHT22;8655;57.106;-2.088;2023-02-01T14:11:54;17.20;42.10
17080;DHT22;8655;57.106;-2.088;2023-02-01T14:19:31;17.20;42.10
17080;DHT22;8655;57.106;-2.088;2023-02-01T14:21:59;17.20;42.20
17080;DHT22;8655;57.106;-2.088;2023-02-01T14:27:16;17.20;42.10
17080;DHT22;8655;57.106;-2.088;2023-02-01T14:29:51;17.20;42.10
17080;DHT22;8655;57.106;-2.088;2023-02-01T14:32:30;17.10;42.10
17080;DHT22;8655;57.106;-2.088;2023-02-01T14:34:59;17.20;42.70
17080;DHT22;8655;57.106;-2.088;2023-02-01T14:37:31;17.10;42.10
17080;DHT22;8655;57.106;-2.088;2023-02-01T14:40:15;17.10;42.10
17080;DHT22;8655;57.106;-2.088;2023-02-01T15:01:25;17.10;42.00
17080;DHT22;8655;57.106;-2.088;2023-02-01T15:06:51;17.10;42.00
17080;DHT22;8655;57.106;-2.088;2023-02-01T15:09:31;17.10;42.00
17080;DHT22;8655;57.106;-2.088;2023-02-01T15:14:35;17.00;42.00
17080;DHT22;8655;57.106;-2.088;2023-02-01T15:17:02;17.00;42.00
17080;DHT22;8655;57.106;-2.088;2023-02-01T15:19:29;17.00;42.00
17080;DHT22;8655;57.106;-2.088;2023-02-01T15:21:58;17.00;42.00
17080;DHT22;8655;57.106;-2.088;2023-02-01T15:24:29;17.00;41.90
17080;DHT22;8655;57.106;-2.088;2023-02-01T15:26:58;17.00;41.90
17080;DHT22;8655;57.106;-2.088;2023-02-01T15:29:27;17.00;41.90
17080;DHT22;8655;57.106;-2.088;2023-02-01T15:31:58;17.00;41.90
17080;DHT22;8655;57.106;-2.088;2023-02-01T15:34:44;17.00;41.90
17080;DHT22;8655;57.106;-2.088;2023-02-01T15:37:15;17.00;41.90
17080;DHT22;8655;57.106;-2.088;2023-02-01T15:42:29;17.00;41.90
17080;DHT22;8655;57.106;-2.088;2023-02-01T15:44:54;17.00;41.90
17080;DHT22;8655;57.106;-2.088;2023-02-01T15:47:31;17.00;41.90
17080;DHT22;8655;57.106;-2.088;2023-02-01T15:49:58;17.00;41.90
17080;DHT22;8655;57.106;-2.088;2023-02-01T15:52:39;17.00;41.90
17080;DHT22;8655;57.106;-2.088;2023-02-01T15:57:40;17.00;41.90
17080;DHT22;8655;57.106;-2.088;2023-02-01T16:00:28;16.90;42.40
17080;DHT22;8655;57.106;-2.088;2023-02-01T16:02:56;16.90;41.80
17080;DHT22;8655;57.106;-2.088;2023-02-01T16:05:39;16.90;41.80
17080;DHT22;8655;57.106;-2.088;2023-02-01T16:08:15;16.90;41.80
17080;DHT22;8655;57.106;-2.088;2023-02-01T16:10:47;16.90;41.80
17080;DHT22;8655;57.106;-2.088;2023-02-01T16:13:14;16.90;41.80
17080;DHT22;8655;57.106;-2.088;2023-02-01T16:15:40;16.90;41.80
17080;DHT22;8655;57.106;-2.088;2023-02-01T16:18:07;16.90;41.80
17080;DHT22;8655;57.106;-2.088;2023-02-01T16:20:37;16.90;41.80
17080;DHT22;8655;57.106;-2.088;2023-02-01T16:23:04;16.90;41.80
17080;DHT22;8655;57.106;-2.088;2023-02-01T16:25:30;16.80;41.70
17080;DHT22;8655;57.106;-2.088;2023-02-01T16:27:56;16.90;41.80
17080;DHT22;8655;57.106;-2.088;2023-02-01T16:30:22;16.90;41.80
17080;DHT22;8655;57.106;-2.088;2023-02-01T16:32:55;16.90;41.80
17080;DHT22;8655;57.106;-2.088;2023-02-01T16:35:26;16.80;41.70
17080;DHT22;8655;57.106;-2.088;2023-02-01T16:37:52;16.80;42.30
17080;DHT22;8655;57.106;-2.088;2023-02-01T16:40:19;16.80;41.70
17080;DHT22;8655;57.106;-2.088;2023-02-01T16:42:49;16.80;41.70
17080;DHT22;8655;57.106;-2.088;2023-02-01T16:45:15;16.80;41.70
17080;DHT22;8655;57.106;-2.088;2023-02-01T16:47:49;16.80;41.70
17080;DHT22;8655;57.106;-2.088;2023-02-01T16:50:24;16.80;41.70
17080;DHT22;8655;57.106;-2.088;2023-02-01T16:52:51;16.80;41.70
17080;DHT22;8655;57.106;-2.088;2023-02-01T16:55:19;16.80;41.70
17080;DHT22;8655;57.106;-2.088;2023-02-01T16:57:47;16.80;41.70
17080;DHT22;8655;57.106;-2.088;2023-02-01T17:00:13;16.80;41.80
17080;DHT22;8655;57.106;-2.088;2023-02-01T17:02:40;16.80;41.80
17080;DHT22;8655;57.106;-2.088;2023-02-01T17:05:08;16.80;41.80
17080;DHT22;8655;57.106;-2.088;2023-02-01T17:07:35;16.60;41.60
17080;DHT22;8655;57.106;-2.088;2023-02-01T17:10:01;16.70;41.70
17080;DHT22;8655;57.106;-2.088;2023-02-01T17:12:30;16.70;41.70
17080;DHT22;8655;57.106;-2.088;2023-02-01T17:14:57;16.70;41.70
17080;DHT22;8655;57.106;-2.088;2023-02-01T17:17:25;16.70;41.60
17080;DHT22;8655;57.106;-2.088;2023-02-01T17:19:53;16.70;41.70
17080;DHT22;8655;57.106;-2.088;2023-02-01T17:22:20;16.70;41.70
17080;DHT22;8655;57.106;-2.088;2023-02-01T17:24:46;16.70;41.70
17080;DHT22;8655;57.106;-2.088;2023-02-01T17:27:12;16.70;41.60
17080;DHT22;8655;57.106;-2.088;2023-02-01T17:29:38;16.70;41.60
17080;DHT22;8655;57.106;-2.088;2023-02-01T17:32:05;16.70;41.70
17080;DHT22;8655;57.106;-2.088;2023-02-01T17:34:34;16.70;41.60
17080;DHT22;8655;57.106;-2.088;2023-02-01T17:36:59;16.70;41.60
17080;DHT22;8655;57.106;-2.088;2023-02-01T17:39:25;16.70;41.70
17080;DHT22;8655;57.106;-2.088;2023-02-01T17:42:11;16.70;41.70
17080;DHT22;8655;57.106;-2.088;2023-02-01T17:44:37;16.70;41.70
17080;DHT22;8655;57.106;-2.088;2023-02-01T17:47:02;16.70;41.70
17080;DHT22;8655;57.106;-2.088;2023-02-01T17:49:28;16.60;41.60
17080;DHT22;8655;57.106;-2.088;2023-02-01T17:51:55;16.60;42.20
17080;DHT22;8655;57.106;-2.088;2023-02-01T17:54:21;16.60;41.60
17080;DHT22;8655;57.106;-2.088;2023-02-01T17:56:47;16.70;41.70
17080;DHT22;8655;57.106;-2.088;2023-02-01T17:59:13;16.60;41.60
17080;DHT22;8655;57.106;-2.088;2023-02-01T18:01:40;16.60;41.60
17080;DHT22;8655;57.106;-2.088;2023-02-01T18:04:09;16.60;41.60
17080;DHT22;8655;57.106;-2.088;2023-02-01T18:06:36;16.60;41.60
17080;DHT22;8655;57.106;-2.088;2023-02-01T18:09:01;16.60;41.60
17080;DHT22;8655;57.106;-2.088;2023-02-01T18:11:27;16.60;41.60
17080;DHT22;8655;57.106;-2.088;2023-02-01T18:13:57;16.60;41.60
17080;DHT22;8655;57.106;-2.088;2023-02-01T18:16:31;16.60;41.60
17080;DHT22;8655;57.106;-2.088;2023-02-01T18:18:57;16.60;41.60
17080;DHT22;8655;57.106;-2.088;2023-02-01T18:21:40;16.60;41.60